Time;durP1;ratioP1;P1;durP2;ratioP2;P2;SDS_P1;SDS_P2;PMS_P1;PMS_P2;Temp;Humidity;BMP_temperature;BMP_pressure;BME280_temperature;BME280_humidity;BME280_pressure;Samples;Min_cycle;Max_cycle;Signal;HPM_P1;HPM_P2
2023/08/26 00:01:32;;;;;;;25.65;12.90;;;19.00;99.90;;;;;;5031839;28;20363;-50
2023/08/26 00:03:58;;;;;;;22.65;11.93;;;18.90;99.90;;;;;;5032071;28;20079;-53
2023/08/26 00:06:23;;;;;;;21.02;11.68;;;18.90;99.90;;;;;;5031941;28;20026;-55
2023/08/26 00:08:52;;;;;;;18.35;10.75;;;18.80;99.90;;;;;;5031999;28;20064;-54
2023/08/26 00:11:18;;;;;;;22.00;12.07;;;18.80;99.90;;;;;;5031797;28;20071;-52
2023/08/26 00:13:44;;;;;;;22.00;11.80;;;18.80;99.90;;;;;;5031667;28;20053;-52
2023/08/26 00:16:11;;;;;;;19.88;11.32;;;18.70;99.90;;;;;;5031834;28;20080;-54
2023/08/26 00:18:37;;;;;;;20.75;11.35;;;18.70;99.90;;;;;;5031731;28;20095;-54
2023/08/26 00:21:03;;;;;;;24.00;11.70;;;18.60;99.90;;;;;;5031786;28;20367;-51
2023/08/26 00:23:31;;;;;;;23.15;11.82;;;18.70;99.90;;;;;;5031463;28;20037;-51
2023/08/26 00:25:57;;;;;;;22.95;10.75;;;18.70;99.90;;;;;;5031735;28;20029;-51
2023/08/26 00:28:22;;;;;;;25.17;11.70;;;18.60;99.90;;;;;;5031544;28;20108;-51
2023/08/26 00:30:59;;;;;;;20.50;10.98;;;18.60;99.90;;;;;;5013987;28;20553;-53
2023/08/26 00:33:28;;;;;;;22.67;11.13;;;18.70;99.90;;;;;;5013570;28;20483;-52
2023/08/26 00:35:54;;;;;;;;;;;18.70;99.90;;;;;;5014345;28;20025;-55
2023/08/26 00:38:20;;;;;;;26.35;10.05;;;18.70;99.90;;;;;;5013498;28;19971;-51
2023/08/26 00:40:45;;;;;;;18.70;9.70;;;18.60;99.90;;;;;;5031613;28;20048;-55
2023/08/26 00:43:11;;;;;;;20.67;10.75;;;18.60;99.90;;;;;;5013535;28;20048;-52
2023/08/26 00:45:43;;;;;;;17.20;9.93;;;18.70;99.90;;;;;;5013495;28;20036;-52
2023/08/26 00:48:11;;;;;;;20.13;10.07;;;18.70;99.90;;;;;;5013682;28;20067;-50
2023/08/26 00:50:42;;;;;;;17.35;9.77;;;18.60;99.90;;;;;;5013574;28;20033;-53
2023/08/26 00:53:11;;;;;;;17.33;8.98;;;18.60;99.90;;;;;;5013274;28;20087;-52
2023/08/26 00:55:39;;;;;;;16.10;8.50;;;18.60;99.90;;;;;;5013635;28;20044;-52
2023/08/26 00:58:06;;;;;;;16.77;9.27;;;18.70;99.90;;;;;;5013397;28;20030;-53
2023/08/26 01:00:35;;;;;;;17.17;8.65;;;18.60;99.90;;;;;;5013505;28;20029;-50
2023/08/26 01:03:01;;;;;;;;;;;18.60;99.90;;;;;;5014018;28;20524;-51
2023/08/26 01:05:27;;;;;;;18.08;8.52;;;18.60;99.90;;;;;;5013481;28;19913;-54
2023/08/26 01:07:53;;;;;;;15.77;7.40;;;18.50;99.90;;;;;;5031061;28;20037;-53
2023/08/26 01:10:23;;;;;;;15.65;7.57;;;18.50;99.90;;;;;;5013544;28;20362;-51
2023/08/26 01:13:01;;;;;;;15.90;7.90;;;18.40;99.90;;;;;;5033705;28;20060;-50
2023/08/26 01:15:29;;;;;;;15.68;7.93;;;18.50;99.90;;;;;;5017404;28;20033;-54
2023/08/26 01:17:56;;;;;;;15.45;7.88;;;18.40;99.90;;;;;;5017174;28;20072;-52
2023/08/26 01:20:24;;;;;;;14.73;7.22;;;18.40;99.90;;;;;;5017084;28;20049;-54
2023/08/26 01:22:51;;;;;;;14.95;7.55;;;18.30;99.90;;;;;;5034621;28;20072;-52
2023/08/26 01:25:17;;;;;;;14.10;7.18;;;18.30;99.90;;;;;;5016540;28;20394;-50
2023/08/26 01:27:43;;;;;;;17.77;7.32;;;18.40;99.90;;;;;;5034498;28;20067;-51
2023/08/26 01:30:12;;;;;;;14.93;7.20;;;18.40;99.90;;;;;;5016568;28;20030;-52
2023/08/26 01:32:59;;;;;;;15.52;7.40;;;18.40;99.90;;;;;;5033796;28;20029;-54
2023/08/26 01:35:32;;;;;;;14.48;7.05;;;18.40;99.90;;;;;;5034043;28;20027;-51
2023/08/26 01:37:59;;;;;;;15.57;7.30;;;18.40;99.90;;;;;;5016139;28;20375;-51
2023/08/26 01:40:26;;;;;;;17.13;8.30;;;18.40;99.90;;;;;;5016255;28;20025;-51
2023/08/26 01:42:54;;;;;;;16.10;7.65;;;18.30;99.90;;;;;;5033706;28;20383;-53
2023/08/26 01:45:20;;;;;;;11.70;5.10;;;18.30;99.90;;;;;;5033859;28;20041;-54
2023/08/26 01:47:45;;;;;;;7.95;3.75;;;18.30;99.90;;;;;;5015899;28;20540;-55
2023/08/26 01:50:11;;;;;;;5.32;2.97;;;18.10;99.90;;;;;;5016032;28;20033;-55
2023/08/26 01:52:37;;;;;;;4.35;1.95;;;18.00;99.90;;;;;;5015717;28;20033;-51
2023/08/26 01:55:03;;;;;;;5.95;2.22;;;17.90;99.90;;;;;;5015924;28;20025;-54
2023/08/26 01:57:29;;;;;;;2.00;1.13;;;17.70;99.90;;;;;;5015953;28;20037;-54
2023/08/26 01:59:54;;;;;;;3.90;1.10;;;17.60;99.90;;;;;;5015709;28;20478;-54
2023/08/26 02:02:20;;;;;;;2.97;1.45;;;17.50;99.90;;;;;;5015699;28;20033;-52
2023/08/26 02:04:46;;;;;;;4.43;1.00;;;17.30;99.90;;;;;;5033506;28;20029;-55
2023/08/26 02:07:12;;;;;;;2.58;1.15;;;17.10;99.90;;;;;;5015684;28;20505;-52
2023/08/26 02:09:38;;;;;;;2.95;0.90;;;17.00;99.90;;;;;;5015508;28;20091;-55
2023/08/26 02:12:04;;;;;;;2.63;0.88;;;16.90;99.90;;;;;;5015479;28;20029;-54
2023/08/26 02:14:30;;;;;;;2.40;0.85;;;16.70;99.90;;;;;;5015618;28;20434;-54
2023/08/26 02:16:55;;;;;;;1.00;0.70;;;16.70;99.90;;;;;;5033367;28;20023;-53
2023/08/26 02:19:22;;;;;;;3.58;1.00;;;16.60;99.90;;;;;;5033310;28;20502;-54
2023/08/26 02:21:47;;;;;;;2.00;0.90;;;16.40;99.90;;;;;;5015408;28;20319;-54
2023/08/26 02:24:13;;;;;;;2.50;0.90;;;16.40;99.90;;;;;;5014072;28;20037;-55
2023/08/26 02:26:39;;;;;;;3.55;1.08;;;16.30;99.90;;;;;;5015480;28;20087;-54
2023/08/26 02:29:04;;;;;;;4.10;0.90;;;16.30;99.90;;;;;;5015123;28;20057;-53
2023/08/26 02:31:30;;;;;;;4.88;0.93;;;16.30;99.90;;;;;;5032886;28;20249;-54
2023/08/26 02:33:55;;;;;;;3.28;1.02;;;16.20;99.90;;;;;;5015202;28;20032;-53
2023/08/26 02:36:21;;;;;;;2.95;0.98;;;16.10;99.90;;;;;;5015246;28;20029;-53
2023/08/26 02:38:47;;;;;;;2.08;1.15;;;16.10;99.90;;;;;;5014725;28;20080;-53
2023/08/26 02:41:12;;;;;;;6.57;0.93;;;16.10;99.90;;;;;;5015128;28;20533;-54
2023/08/26 02:43:38;;;;;;;1.65;0.90;;;16.00;99.90;;;;;;5014837;28;20036;-52
2023/08/26 02:46:05;;;;;;;2.40;0.80;;;16.00;99.90;;;;;;5014671;28;20104;-55
2023/08/26 02:48:30;;;;;;;3.20;1.00;;;15.90;99.90;;;;;;5014871;28;20053;-52
2023/08/26 02:50:57;;;;;;;5.25;1.00;;;15.90;99.90;;;;;;5032705;28;20025;-53
2023/08/26 02:53:24;;;;;;;6.70;1.73;;;15.90;99.90;;;;;;5030885;28;20061;-52
2023/08/26 02:55:51;;;;;;;4.05;1.17;;;15.90;99.90;;;;;;5032647;28;20060;-51
2023/08/26 02:58:17;;;;;;;3.40;0.95;;;15.90;99.90;;;;;;5014452;28;20026;-53
2023/08/26 03:00:44;;;;;;;4.85;1.60;;;15.90;99.90;;;;;;5031152;28;20032;-53
2023/08/26 03:03:09;;;;;;;3.38;1.15;;;15.90;99.90;;;;;;5014289;28;20512;-55
2023/08/26 03:05:35;;;;;;;3.55;1.30;;;15.90;99.90;;;;;;5014607;28;20120;-53
2023/08/26 03:08:00;;;;;;;4.30;2.10;;;15.90;99.90;;;;;;5014334;28;20057;-53
2023/08/26 03:10:26;;;;;;;7.43;2.13;;;15.90;99.90;;;;;;5014383;28;20033;-56
2023/08/26 03:12:54;;;;;;;4.72;2.53;;;15.80;99.90;;;;;;5013404;28;20036;-54
2023/08/26 03:15:19;;;;;;;11.85;4.40;;;15.80;99.90;;;;;;5014480;28;20531;-54
2023/08/26 03:17:45;;;;;;;5.60;2.95;;;15.70;99.90;;;;;;5014021;28;20037;-54
2023/08/26 03:20:12;;;;;;;4.00;1.65;;;15.70;99.90;;;;;;5030885;28;20029;-49
2023/08/26 03:22:38;;;;;;;4.82;1.17;;;15.70;99.90;;;;;;5031723;28;20025;-54
2023/08/26 03:25:04;;;;;;;3.72;1.50;;;15.60;99.90;;;;;;5014308;28;20383;-52
2023/08/26 03:27:30;;;;;;;3.05;1.13;;;15.60;99.90;;;;;;5030423;28;20034;-53
2023/08/26 03:29:56;;;;;;;4.07;1.20;;;15.70;99.90;;;;;;5031744;28;20048;-51
2023/08/26 03:32:25;;;;;;;4.40;1.58;;;15.60;99.90;;;;;;5014143;28;20026;-51
2023/08/26 03:34:51;;;;;;;5.85;1.85;;;15.60;99.90;;;;;;5031476;28;20532;-50
2023/08/26 03:37:16;;;;;;;3.70;1.63;;;15.60;99.90;;;;;;5014023;28;20029;-51
2023/08/26 03:39:42;;;;;;;5.50;1.50;;;15.50;99.90;;;;;;5013870;28;20088;-51
2023/08/26 03:42:08;;;;;;;7.97;1.65;;;15.50;99.90;;;;;;5013736;28;20034;-51
2023/08/26 03:44:33;;;;;;;4.25;1.63;;;15.50;99.90;;;;;;5013778;28;20037;-52
2023/08/26 03:46:59;;;;;;;5.32;1.90;;;15.40;99.90;;;;;;5031593;28;20029;-53
2023/08/26 03:49:26;;;;;;;6.05;1.50;;;15.40;99.90;;;;;;5013606;28;20029;-52
2023/08/26 03:51:51;;;;;;;5.47;1.67;;;15.30;99.90;;;;;;5013449;28;20033;-51
2023/08/26 03:54:17;;;;;;;4.03;1.63;;;15.30;99.90;;;;;;5013646;28;20041;-50
2023/08/26 03:56:43;;;;;;;3.33;1.38;;;15.20;99.90;;;;;;5013802;28;20036;-51
2023/08/26 03:59:10;;;;;;;3.50;1.55;;;15.30;99.90;;;;;;5013757;28;20088;-52
2023/08/26 04:01:36;;;;;;;5.20;2.03;;;15.20;99.90;;;;;;5013346;28;20029;-51
2023/08/26 04:04:03;;;;;;;3.63;1.33;;;15.20;99.90;;;;;;5013416;28;20032;-54
2023/08/26 04:06:28;;;;;;;2.55;1.30;;;15.20;99.90;;;;;;5031189;28;20025;-52
2023/08/26 04:08:54;;;;;;;4.90;1.38;;;15.20;99.90;;;;;;5013497;28;20449;-54
2023/08/26 04:11:20;;;;;;;2.65;1.40;;;15.10;99.90;;;;;;5013121;28;20033;-50
2023/08/26 04:13:46;;;;;;;3.85;1.25;;;15.00;99.90;;;;;;5013595;28;20046;-52
2023/08/26 04:16:15;;;;;;;3.83;1.40;;;15.00;99.90;;;;;;5013235;28;20120;-53
2023/08/26 04:18:42;;;;;;;2.30;1.20;;;15.00;99.90;;;;;;5030840;28;20333;-53
2023/08/26 04:21:09;;;;;;;4.60;1.25;;;14.90;99.90;;;;;;5029765;28;20056;-52
2023/08/26 04:23:34;;;;;;;3.13;1.35;;;14.90;99.90;;;;;;5029356;28;20037;-50
2023/08/26 04:26:00;;;;;;;3.42;1.13;;;14.80;99.90;;;;;;5030942;28;20441;-50
2023/08/26 04:28:28;;;;;;;3.53;1.70;;;14.80;99.90;;;;;;5030287;28;20072;-55
2023/08/26 04:30:54;;;;;;;31.42;13.07;;;14.80;99.90;;;;;;5028741;28;20038;-49
2023/08/26 04:33:21;;;;;;;6.18;2.75;;;14.80;99.90;;;;;;5029960;28;20412;-55
2023/08/26 04:35:47;;;;;;;16.08;6.78;;;14.70;99.90;;;;;;5030668;28;20117;-52
2023/08/26 04:38:15;;;;;;;7.53;1.70;;;14.80;99.90;;;;;;5012841;28;20053;-55
2023/08/26 04:40:41;;;;;;;3.80;1.45;;;14.70;99.90;;;;;;5013044;28;20029;-55
2023/08/26 04:43:10;;;;;;;3.80;1.40;;;14.70;99.90;;;;;;5030786;28;20040;-55
2023/08/26 04:45:37;;;;;;;6.05;2.45;;;14.70;99.90;;;;;;5029158;28;20518;-55
2023/08/26 04:48:05;;;;;;;4.32;1.67;;;14.70;99.90;;;;;;5028679;28;20060;-54
2023/08/26 04:50:32;;;;;;;7.13;1.38;;;14.70;99.90;;;;;;5029382;28;20025;-53
2023/08/26 04:52:58;;;;;;;5.63;1.58;;;14.70;99.90;;;;;;5012525;28;20528;-55
2023/08/26 04:55:24;;;;;;;2.63;1.20;;;14.60;99.90;;;;;;5013065;28;20025;-55
2023/08/26 04:57:50;;;;;;;2.70;1.30;;;14.60;99.90;;;;;;5012731;28;20037;-53
2023/08/26 05:00:16;;;;;;;6.97;1.95;;;14.60;99.90;;;;;;5012815;28;20555;-53
2023/08/26 05:02:42;;;;;;;3.05;1.58;;;14.60;99.90;;;;;;5012522;28;20029;-55
2023/08/26 05:05:09;;;;;;;3.92;1.38;;;14.60;99.90;;;;;;5029489;28;20033;-55
2023/08/26 05:07:35;;;;;;;4.68;1.52;;;14.60;99.90;;;;;;5029213;28;20068;-52
2023/08/26 05:10:03;;;;;;;4.93;1.40;;;14.60;99.90;;;;;;5030314;28;20060;-53
2023/08/26 05:12:29;;;;;;;2.05;1.17;;;14.60;99.90;;;;;;5028869;28;20034;-54
2023/08/26 05:14:55;;;;;;;5.38;1.33;;;14.70;99.90;;;;;;5028986;28;20030;-53
2023/08/26 05:17:21;;;;;;;5.85;1.30;;;14.70;99.90;;;;;;5012624;28;20108;-55
2023/08/26 05:19:46;;;;;;;5.03;1.63;;;14.70;99.90;;;;;;5030544;28;20050;-55
2023/08/26 05:22:12;;;;;;;3.38;1.63;;;14.70;99.90;;;;;;5029992;28;20124;-54
2023/08/26 05:24:38;;;;;;;2.70;1.42;;;14.80;99.90;;;;;;5028970;28;20445;-55
2023/08/26 05:27:04;;;;;;;3.65;1.00;;;14.80;99.90;;;;;;5012589;28;20030;-50
2023/08/26 05:29:30;;;;;;;6.25;1.73;;;14.90;99.90;;;;;;5012391;28;20065;-53
2023/08/26 05:31:56;;;;;;;3.88;1.75;;;14.90;99.90;;;;;;4996082;28;20608;-54
2023/08/26 05:34:22;;;;;;;2.65;1.17;;;14.90;99.90;;;;;;5012133;28;20025;-55
2023/08/26 05:36:47;;;;;;;4.57;1.35;;;15.00;99.90;;;;;;5012348;28;20029;-54
2023/08/26 05:39:13;;;;;;;4.05;1.20;;;15.00;99.90;;;;;;5012344;28;20025;-51
2023/08/26 05:41:38;;;;;;;4.85;1.27;;;15.00;99.90;;;;;;5012291;28;20087;-55
2023/08/26 05:44:05;;;;;;;5.05;1.25;;;15.10;99.90;;;;;;5029846;28;20033;-54
2023/08/26 05:46:32;;;;;;;3.38;1.27;;;15.10;99.90;;;;;;5012372;28;20057;-55
2023/08/26 05:48:57;;;;;;;5.60;1.45;;;15.10;99.90;;;;;;5012148;28;20064;-53
2023/08/26 05:51:23;;;;;;;5.22;1.50;;;15.20;99.90;;;;;;5012182;28;20040;-52
2023/08/26 05:53:49;;;;;;;5.68;1.58;;;15.20;99.90;;;;;;5030156;28;20033;-53
2023/08/26 05:56:15;;;;;;;9.15;2.30;;;15.30;99.90;;;;;;5012314;28;20460;-51
2023/08/26 05:58:40;;;;;;;4.80;1.40;;;15.30;99.90;;;;;;5014234;28;20363;-56
2023/08/26 06:01:06;;;;;;;3.80;1.27;;;15.40;99.90;;;;;;5015771;28;20037;-54
2023/08/26 06:03:32;;;;;;;3.13;0.95;;;15.40;99.90;;;;;;5015429;28;20120;-50
2023/08/26 06:05:57;;;;;;;2.95;1.10;;;15.50;99.90;;;;;;5015590;28;20494;-56
2023/08/26 06:08:23;;;;;;;4.47;1.02;;;15.60;99.90;;;;;;5015647;28;20060;-56
2023/08/26 06:10:54;;;;;;;2.60;1.00;;;15.60;99.90;;;;;;5015787;28;20033;-53
2023/08/26 06:13:22;;;;;;;1.75;1.00;;;15.70;99.90;;;;;;5015264;28;20033;-52
2023/08/26 06:15:55;;;;;;;3.97;1.10;;;15.70;99.90;;;;;;5015452;28;20030;-53
2023/08/26 06:18:22;;;;;;;4.22;1.48;;;15.80;99.90;;;;;;5032802;28;20100;-54
2023/08/26 06:20:50;;;;;;;1.70;0.90;;;15.80;99.90;;;;;;5031766;28;20025;-52
2023/08/26 06:23:16;;;;;;;5.13;1.40;;;15.90;99.90;;;;;;5015183;28;20037;-55
2023/08/26 06:25:53;;;;;;;4.63;1.30;;;16.10;99.90;;;;;;5015723;28;20040;-53
2023/08/26 06:28:23;;;;;;;4.97;1.23;;;16.10;99.90;;;;;;5031897;28;20587;-51
2023/08/26 06:30:49;;;;;;;5.05;1.42;;;16.20;99.90;;;;;;5015145;28;20029;-53
2023/08/26 06:33:16;;;;;;;1.83;0.80;;;16.30;99.90;;;;;;5014432;28;20026;-50
2023/08/26 06:35:47;;;;;;;2.63;0.70;;;16.30;99.90;;;;;;5014808;28;20509;-51
2023/08/26 06:38:13;;;;;;;2.42;0.90;;;16.30;99.90;;;;;;5032500;28;20041;-54
2023/08/26 06:40:39;;;;;;;3.67;1.30;;;16.40;99.90;;;;;;5031445;28;20081;-55
2023/08/26 06:43:05;;;;;;;6.97;1.63;;;16.40;99.90;;;;;;5014579;28;20041;-54
2023/08/26 06:45:34;;;;;;;2.40;0.77;;;16.40;99.90;;;;;;5031428;28;20044;-54
2023/08/26 06:48:06;;;;;;;2.47;0.93;;;16.50;99.90;;;;;;5014849;28;20061;-50
2023/08/26 06:50:33;;;;;;;3.67;1.00;;;16.60;99.90;;;;;;5014954;28;20034;-50
2023/08/26 06:52:59;;;;;;;4.60;1.10;;;16.60;99.90;;;;;;5014296;28;20033;-51
2023/08/26 06:55:25;;;;;;;2.35;0.77;;;16.70;99.90;;;;;;5029899;28;20033;-52
2023/08/26 06:57:52;;;;;;;5.32;1.00;;;16.70;99.90;;;;;;5030166;28;20510;-52
2023/08/26 07:00:18;;;;;;;4.18;1.50;;;16.80;99.90;;;;;;4998738;28;20091;-55
2023/08/26 07:02:43;;;;;;;3.92;1.33;;;16.80;99.90;;;;;;5031742;28;20037;-51
2023/08/26 07:05:09;;;;;;;6.97;1.55;;;16.90;99.90;;;;;;5031357;28;20037;-50
2023/08/26 07:07:36;;;;;;;4.57;1.02;;;17.00;99.90;;;;;;5032374;28;20030;-53
2023/08/26 07:10:02;;;;;;;20.20;10.27;;;17.00;99.90;;;;;;5031416;28;20037;-49
2023/08/26 07:12:28;;;;;;;4.70;2.35;;;17.00;99.90;;;;;;5031822;28;20029;-51
2023/08/26 07:14:54;;;;;;;18.17;8.73;;;17.20;99.90;;;;;;5032236;28;20494;-50
2023/08/26 07:17:19;;;;;;;13.95;6.65;;;17.30;99.90;;;;;;5031981;28;20048;-52
2023/08/26 07:19:45;;;;;;;5.88;2.25;;;17.40;99.90;;;;;;5031890;28;20055;-50
2023/08/26 07:22:10;;;;;;;4.00;1.50;;;17.50;99.90;;;;;;5031779;28;20394;-50
2023/08/26 07:24:37;;;;;;;5.97;1.73;;;17.50;99.90;;;;;;5031881;28;20029;-55
2023/08/26 07:27:03;;;;;;;2.45;1.00;;;17.60;99.90;;;;;;5031804;28;20061;-49
2023/08/26 07:29:31;;;;;;;2.60;1.27;;;17.60;99.90;;;;;;5013957;28;20130;-54
2023/08/26 07:31:57;;;;;;;7.65;1.30;;;17.60;99.90;;;;;;5031620;28;20026;-52
2023/08/26 07:34:22;;;;;;;3.40;1.60;;;17.60;99.90;;;;;;5031711;28;20035;-52
2023/08/26 07:36:48;;;;;;;3.70;1.33;;;17.60;99.90;;;;;;5031782;28;20108;-49
2023/08/26 07:39:13;;;;;;;2.03;1.00;;;17.70;99.90;;;;;;5031566;28;20025;-49
2023/08/26 07:41:39;;;;;;;7.78;2.88;;;17.70;99.90;;;;;;5031387;28;20037;-49
2023/08/26 07:44:05;;;;;;;4.72;2.10;;;17.80;99.90;;;;;;5031456;28;20104;-51
2023/08/26 07:46:30;;;;;;;4.75;2.25;;;17.80;99.90;;;;;;5031463;28;20095;-49
2023/08/26 07:48:56;;;;;;;3.13;1.40;;;17.90;99.90;;;;;;5031304;28;20025;-50
2023/08/26 07:51:22;;;;;;;3.08;1.30;;;18.00;99.90;;;;;;5031210;28;20037;-51
2023/08/26 07:53:47;;;;;;;2.45;0.85;;;18.00;99.90;;;;;;5031380;28;20032;-50
2023/08/26 07:56:13;;;;;;;3.50;0.80;;;18.20;99.90;;;;;;5013494;28;20240;-54
2023/08/26 07:58:38;;;;;;;5.05;1.38;;;18.10;99.90;;;;;;5031288;28;20024;-53
2023/08/26 08:01:04;;;;;;;5.13;1.90;;;18.10;99.90;;;;;;5031245;28;20670;-49
2023/08/26 08:03:30;;;;;;;3.05;0.90;;;18.00;99.90;;;;;;5030941;28;20426;-51
2023/08/26 08:05:56;;;;;;;5.45;1.60;;;18.10;99.90;;;;;;5031038;28;20029;-51
2023/08/26 08:08:22;;;;;;;2.22;0.93;;;18.00;99.90;;;;;;5030889;28;20026;-49
2023/08/26 08:10:49;;;;;;;4.25;2.30;;;18.10;99.90;;;;;;5030966;28;20033;-49
2023/08/26 08:13:16;;;;;;;2.00;0.90;;;18.30;99.90;;;;;;5030781;28;20104;-53
2023/08/26 08:15:42;;;;;;;1.38;0.73;;;18.40;99.90;;;;;;5030997;28;20033;-48
2023/08/26 08:18:07;;;;;;;5.68;1.00;;;18.50;99.90;;;;;;5030830;28;20148;-51
2023/08/26 08:20:33;;;;;;;3.15;1.63;;;18.70;99.90;;;;;;5030912;28;20390;-50
2023/08/26 08:22:59;;;;;;;4.78;1.30;;;18.70;99.90;;;;;;5030776;28;20040;-52
2023/08/26 08:25:24;;;;;;;3.35;1.10;;;18.70;99.90;;;;;;5030733;28;20029;-51
2023/08/26 08:27:50;;;;;;;1.63;0.80;;;18.60;99.90;;;;;;5030694;28;20040;-50
2023/08/26 08:30:16;;;;;;;2.47;0.93;;;18.60;99.90;;;;;;5031036;28;20037;-49
2023/08/26 08:32:41;;;;;;;3.35;0.80;;;18.60;99.90;;;;;;5030656;28;20022;-52
2023/08/26 08:35:07;;;;;;;2.72;1.13;;;18.60;99.90;;;;;;5030914;28;20036;-54
2023/08/26 08:37:34;;;;;;;7.25;3.47;;;18.50;99.90;;;;;;5030931;28;20414;-54
2023/08/26 08:39:59;;;;;;;4.68;2.42;;;18.40;99.90;;;;;;5030444;28;20037;-54
2023/08/26 08:42:26;;;;;;;3.78;1.90;;;18.50;99.90;;;;;;5030500;28;20025;-50
2023/08/26 08:44:52;;;;;;;6.15;2.53;;;18.50;99.90;;;;;;5030641;28;20041;-54
2023/08/26 08:47:18;;;;;;;6.78;2.05;;;18.50;99.90;;;;;;5030735;28;20041;-51
2023/08/26 08:49:44;;;;;;;6.53;2.55;;;18.60;99.90;;;;;;5012780;28;20033;-54
2023/08/26 08:52:10;;;;;;;3.13;1.10;;;18.70;99.90;;;;;;5030391;28;20040;-53
2023/08/26 08:54:37;;;;;;;3.92;1.10;;;18.90;99.90;;;;;;5030769;28;20109;-52
2023/08/26 08:57:04;;;;;;;2.50;0.90;;;18.90;99.90;;;;;;5030480;28;20033;-54
2023/08/26 08:59:34;;;;;;;4.03;1.15;;;19.00;99.90;;;;;;5030235;28;20026;-52
2023/08/26 09:02:00;;;;;;;1.30;0.57;;;19.10;99.90;;;;;;5030143;28;20399;-52
2023/08/26 09:04:26;;;;;;;3.58;0.90;;;19.10;99.90;;;;;;5030729;28;20033;-49
2023/08/26 09:06:52;;;;;;;2.50;0.60;;;19.10;99.90;;;;;;5030466;28;20021;-53
2023/08/26 09:09:19;;;;;;;6.15;1.33;;;19.00;99.90;;;;;;5030215;28;20037;-51
2023/08/26 09:11:47;;;;;;;4.35;0.95;;;19.00;99.90;;;;;;5030263;28;20037;-50
2023/08/26 09:14:13;;;;;;;2.75;0.65;;;19.10;99.90;;;;;;5030292;28;20443;-50
2023/08/26 09:16:40;;;;;;;2.05;0.82;;;19.20;99.90;;;;;;5030528;28;20411;-49
2023/08/26 09:19:07;;;;;;;4.95;0.90;;;19.20;99.90;;;;;;5030105;28;20064;-50
2023/08/26 09:21:33;;;;;;;5.78;2.03;;;19.10;99.90;;;;;;5030092;28;20113;-53
2023/08/26 09:24:00;;;;;;;1.95;0.75;;;19.20;99.90;;;;;;5030188;28;20108;-54
2023/08/26 09:26:26;;;;;;;3.72;0.60;;;19.10;99.90;;;;;;5030591;28;20037;-50
2023/08/26 09:28:52;;;;;;;16.23;6.85;;;19.00;99.90;;;;;;5030050;28;20033;-50
2023/08/26 09:31:19;;;;;;;8.82;4.18;;;18.90;99.90;;;;;;5030143;28;20055;-50
2023/08/26 09:33:50;;;;;;;4.13;2.00;;;18.90;99.90;;;;;;5032600;28;20037;-50
2023/08/26 09:36:15;;;;;;;4.90;2.00;;;19.00;99.90;;;;;;5033871;28;20479;-54
2023/08/26 09:38:50;;;;;;;7.88;3.67;;;19.20;99.90;;;;;;5033783;28;20021;-54
2023/08/26 09:41:23;;;;;;;5.20;2.42;;;19.20;99.90;;;;;;5033931;28;20506;-50
2023/08/26 09:43:49;;;;;;;5.38;1.42;;;19.20;99.90;;;;;;5034039;28;20026;-52
2023/08/26 09:46:21;;;;;;;2.47;0.75;;;19.30;99.90;;;;;;5033966;28;20525;-50
2023/08/26 09:48:50;;;;;;;3.70;0.77;;;19.40;99.90;;;;;;5033624;28;20052;-53
2023/08/26 09:51:27;;;;;;;2.70;0.55;;;19.60;99.90;;;;;;5016091;28;20037;-54
2023/08/26 09:53:57;;;;;;;2.75;0.90;;;19.90;99.90;;;;;;5033721;28;20025;-50
2023/08/26 09:56:28;;;;;;;2.72;1.00;;;20.10;99.90;;;;;;5033956;28;20475;-52
2023/08/26 09:58:56;;;;;;;2.05;0.73;;;20.20;99.90;;;;;;5033813;28;20035;-51
2023/08/26 10:01:24;;;;;;;3.40;0.63;;;20.20;99.90;;;;;;5033561;28;20033;-49
2023/08/26 10:04:10;;;;;;;1.35;0.47;;;20.10;99.90;;;;;;5033781;28;20040;-53
2023/08/26 10:06:39;;;;;;;1.77;0.63;;;20.00;99.90;;;;;;5033687;28;20025;-54
2023/08/26 10:09:44;;;;;;;3.30;1.10;;;19.90;99.90;;;;;;5033341;28;20092;-51
2023/08/26 10:12:17;;;;;;;2.17;0.73;;;19.90;99.90;;;;;;4991395;28;20060;-50
2023/08/26 10:14:47;;;;;;;1.55;0.82;;;20.10;99.90;;;;;;5028096;28;20433;-53
2023/08/26 10:17:14;;;;;;;1.77;0.70;;;20.20;99.90;;;;;;5033269;28;20026;-51
2023/08/26 10:19:41;;;;;;;2.83;0.65;;;20.30;99.90;;;;;;5033190;28;20052;-51
2023/08/26 10:22:09;;;;;;;1.88;0.60;;;20.50;99.90;;;;;;5033029;28;20132;-51
2023/08/26 10:24:39;;;;;;;2.17;0.70;;;20.50;99.90;;;;;;5033449;28;20025;-54
2023/08/26 10:27:08;;;;;;;1.70;0.80;;;20.70;99.90;;;;;;5033068;28;20448;-52
2023/08/26 10:29:38;;;;;;;2.50;0.63;;;20.80;99.90;;;;;;5032849;28;20143;-54
2023/08/26 10:32:23;;;;;;;1.38;0.80;;;20.90;99.90;;;;;;5032783;28;20041;-50
2023/08/26 10:34:55;;;;;;;1.52;0.50;;;21.20;99.90;;;;;;5032902;28;20082;-55
2023/08/26 10:37:26;;;;;;;1.92;0.60;;;21.30;99.90;;;;;;5032887;28;20393;-54
2023/08/26 10:39:52;;;;;;;0.77;0.40;;;21.40;99.90;;;;;;5032998;28;20523;-52
2023/08/26 10:42:19;;;;;;;0.65;0.50;;;21.40;99.90;;;;;;5032681;28;20029;-50
2023/08/26 10:44:56;;;;;;;3.28;0.50;;;21.50;99.90;;;;;;5031611;28;20033;-52
2023/08/26 10:47:45;;;;;;;1.48;0.70;;;21.40;99.90;;;;;;5032669;28;20045;-53
2023/08/26 10:50:21;;;;;;;;;;;21.20;99.90;;;;;;5033289;28;20037;-49
2023/08/26 10:52:52;;;;;;;3.03;0.80;;;21.00;99.90;;;;;;5032282;28;20050;-54
2023/08/26 10:55:23;;;;;;;3.15;0.60;;;20.90;99.90;;;;;;5032406;28;20533;-53
2023/08/26 10:58:13;;;;;;;3.10;0.75;;;20.90;99.90;;;;;;5032299;28;20021;-50
2023/08/26 11:00:41;;;;;;;5.43;1.00;;;21.00;99.90;;;;;;5032711;28;20033;-51
2023/08/26 11:03:08;;;;;;;6.40;1.73;;;21.20;99.90;;;;;;5032158;28;20037;-52
2023/08/26 11:05:36;;;;;;;8.40;2.70;;;21.10;99.90;;;;;;5032252;28;20387;-50
2023/08/26 11:08:03;;;;;;;7.28;2.22;;;21.10;99.90;;;;;;5032003;28;20068;-50
2023/08/26 11:10:34;;;;;;;7.97;3.63;;;21.30;99.90;;;;;;5032482;28;20121;-52
2023/08/26 11:13:00;;;;;;;3.42;1.83;;;21.60;99.90;;;;;;5031857;28;20033;-51
2023/08/26 11:15:34;;;;;;;5.57;1.90;;;21.80;99.90;;;;;;5032157;28;20478;-53
2023/08/26 11:18:00;;;;;;;1.25;0.77;;;21.80;99.90;;;;;;5031973;28;20037;-51
2023/08/26 11:20:28;;;;;;;2.58;0.60;;;21.80;99.90;;;;;;5031959;28;20505;-51
2023/08/26 11:22:54;;;;;;;2.00;0.70;;;21.60;99.90;;;;;;5031734;28;20029;-50
2023/08/26 11:25:20;;;;;;;1.10;0.57;;;21.50;99.90;;;;;;5032026;28;20533;-53
2023/08/26 11:27:45;;;;;;;2.35;0.77;;;21.70;99.90;;;;;;5031803;28;20026;-53
2023/08/26 11:30:12;;;;;;;1.98;0.80;;;21.70;99.80;;;;;;5031776;28;20087;-50
2023/08/26 11:32:39;;;;;;;3.15;0.80;;;21.70;99.90;;;;;;5031541;28;20475;-50
2023/08/26 11:35:06;;;;;;;4.20;1.88;;;21.80;99.90;;;;;;5032082;28;20021;-53
2023/08/26 11:37:39;;;;;;;2.20;0.95;;;22.00;99.50;;;;;;5032004;28;20216;-53
2023/08/26 11:40:05;;;;;;;2.08;0.60;;;22.10;99.00;;;;;;5031295;28;20084;-55
2023/08/26 11:42:31;;;;;;;3.28;1.00;;;22.00;99.80;;;;;;5031374;28;20096;-55
2023/08/26 11:44:56;;;;;;;2.60;0.60;;;22.00;99.90;;;;;;5031663;28;20038;-53
2023/08/26 11:47:24;;;;;;;2.22;0.82;;;22.00;99.90;;;;;;5031470;28;20041;-53
2023/08/26 11:49:56;;;;;;;2.17;0.70;;;21.90;99.90;;;;;;5031466;28;20394;-55
2023/08/26 11:52:35;;;;;;;1.45;0.90;;;21.80;99.90;;;;;;5031127;28;20083;-52
2023/08/26 11:55:03;;;;;;;3.35;0.90;;;21.80;99.90;;;;;;5031297;28;20029;-51
2023/08/26 11:57:32;;;;;;;1.08;0.52;;;21.60;99.90;;;;;;5031217;28;20072;-52
2023/08/26 12:00:09;;;;;;;0.80;0.52;;;21.60;99.90;;;;;;5031104;28;20022;-50
2023/08/26 12:02:38;;;;;;;0.70;0.50;;;21.60;99.90;;;;;;5031073;28;20541;-55
2023/08/26 12:05:04;;;;;;;2.15;0.80;;;21.80;99.80;;;;;;5031251;28;20030;-53
2023/08/26 12:07:30;;;;;;;0.60;0.60;;;21.90;99.80;;;;;;5013559;28;20045;-52
2023/08/26 12:09:57;;;;;;;2.20;0.70;;;22.30;99.80;;;;;;5031022;28;20026;-51
2023/08/26 12:12:24;;;;;;;1.73;0.80;;;22.50;98.50;;;;;;5030797;28;20034;-49
2023/08/26 12:14:50;;;;;;;3.00;0.70;;;22.50;98.00;;;;;;5031333;28;20370;-52
2023/08/26 12:17:16;;;;;;;1.13;0.70;;;22.50;99.50;;;;;;5030958;28;20478;-51
2023/08/26 12:19:43;;;;;;;0.80;0.68;;;22.70;99.90;;;;;;5030952;28;20516;-51
2023/08/26 12:22:10;;;;;;;1.23;0.60;;;22.80;97.50;;;;;;5030988;28;20061;-50
2023/08/26 12:24:39;;;;;;;1.55;0.80;;;22.90;98.00;;;;;;5030879;28;20033;-52
2023/08/26 12:27:09;;;;;;;2.67;0.90;;;22.80;97.80;;;;;;5030788;28;20029;-52
2023/08/26 12:29:35;;;;;;;3.13;0.90;;;22.80;98.80;;;;;;5030743;28;20033;-51
2023/08/26 12:32:01;;;;;;;2.17;0.80;;;22.60;99.40;;;;;;5030629;28;20120;-53
2023/08/26 12:34:26;;;;;;;1.90;0.70;;;22.50;98.70;;;;;;5030710;28;20099;-49
2023/08/26 12:36:52;;;;;;;1.15;0.70;;;22.30;98.50;;;;;;5030874;28;20026;-53
2023/08/26 12:39:17;;;;;;;1.85;0.70;;;22.30;99.20;;;;;;5030568;28;20018;-51
2023/08/26 12:41:43;;;;;;;2.78;0.80;;;22.30;99.00;;;;;;5030542;28;20542;-51
2023/08/26 12:44:09;;;;;;;1.10;0.63;;;22.30;98.80;;;;;;5030593;28;20124;-54
2023/08/26 12:46:35;;;;;;;0.98;0.60;;;22.00;99.10;;;;;;5030690;28;20064;-53